Time;durP1;ratioP1;P1;durP2;ratioP2;P2;SDS_P1;SDS_P2;PMS_P1;PMS_P2;Temp;Humidity;BMP_temperature;BMP_pressure;BME280_temperature;BME280_humidity;BME280_pressure;Samples;Min_cycle;Max_cycle;Signal;HPM_P1;HPM_P2
2021/09/12 00:00:59;;;;;;;4.13;1.10;;;;;;;28.78;37.61;96896.66;4959102;28;20032;-29
2021/09/12 00:03:25;;;;;;;1.58;1.02;;;;;;;28.78;37.41;96904.56;4957548;28;20035;-28
2021/09/12 00:05:51;;;;;;;1.73;1.08;;;;;;;28.78;37.21;96899.31;4963619;28;20041;-35
2021/09/12 00:08:16;;;;;;;1.98;1.20;;;;;;;28.78;37.37;96896.66;4953976;28;20657;-29
2021/09/12 00:10:42;;;;;;;4.07;1.00;;;;;;;28.77;37.34;96895.84;4962746;28;20030;-31
2021/09/12 00:13:07;;;;;;;1.48;1.08;;;;;;;28.77;37.22;96887.06;4954523;28;20031;-28
2021/09/12 00:15:33;;;;;;;6.68;1.23;;;;;;;28.77;37.27;96897.63;4948112;28;20030;-29
2021/09/12 00:17:58;;;;;;;2.13;1.25;;;;;;;28.76;37.20;96902.03;4954755;28;20089;-29
2021/09/12 00:20:24;;;;;;;3.28;1.00;;;;;;;28.75;37.35;96897.72;4959310;28;20034;-27
2021/09/12 00:22:49;;;;;;;3.17;1.20;;;;;;;28.74;37.16;96892.53;4959634;28;20031;-29
2021/09/12 00:25:14;;;;;;;2.47;1.00;;;;;;;28.74;37.24;96892.53;4959075;28;20022;-28
2021/09/12 00:27:40;;;;;;;3.55;1.10;;;;;;;28.73;37.29;96891.69;4958370;28;20023;-29
2021/09/12 00:30:06;;;;;;;6.28;1.50;;;;;;;28.73;37.27;96889.06;4957017;28;20689;-28
2021/09/12 00:32:31;;;;;;;2.20;0.95;;;;;;;28.73;37.06;96888.22;4961497;28;20035;-28
2021/09/12 00:34:57;;;;;;;5.75;1.48;;;;;;;28.73;37.15;96893.47;4961456;28;20073;-28
2021/09/12 00:37:22;;;;;;;1.95;0.90;;;;;;;28.72;37.18;96894.44;4957181;28;20019;-29
2021/09/12 00:39:47;;;;;;;1.80;1.00;;;;;;;28.73;37.09;96896.13;4938733;28;20061;-28
2021/09/12 00:42:13;;;;;;;2.33;1.00;;;;;;;28.71;36.86;96892.75;4957426;28;20030;-28
2021/09/12 00:44:38;;;;;;;2.47;1.10;;;;;;;28.72;37.04;96891.78;4951598;28;20101;-29
2021/09/12 00:47:11;;;;;;;3.10;1.02;;;;;;;28.71;37.03;96887.47;4952807;28;20729;-30
2021/09/12 00:49:37;;;;;;;3.08;1.13;;;;;;;28.69;37.18;96891.03;4956995;28;20037;-29
2021/09/12 00:52:03;;;;;;;1.23;0.93;;;;;;;28.72;36.95;96889.16;4956953;28;20039;-29
2021/09/12 00:54:29;;;;;;;1.50;1.10;;;;;;;28.69;37.13;96885.75;4956893;28;20035;-28
2021/09/12 00:56:54;;;;;;;1.48;1.00;;;;;;;28.69;37.38;96888.41;4952748;28;20452;-28
2021/09/12 00:59:19;;;;;;;2.67;1.20;;;;;;;28.69;37.03;96885.75;4959293;28;20041;-27
2021/09/12 01:01:45;;;;;;;1.73;1.10;;;;;;;28.68;36.86;96883.25;4963989;28;20037;-29
2021/09/12 01:04:10;;;;;;;1.48;0.90;;;;;;;28.68;37.04;96876.16;4943690;28;20520;-29
2021/09/12 01:06:36;;;;;;;1.63;1.10;;;;;;;28.69;37.07;96884.94;4960135;28;20034;-28
2021/09/12 01:09:01;;;;;;;3.22;1.05;;;;;;;28.68;36.89;96888.53;4960256;28;20093;-30
2021/09/12 01:11:27;;;;;;;2.17;0.95;;;;;;;28.67;36.90;96882.38;4955239;28;20358;-31
2021/09/12 01:13:52;;;;;;;1.83;0.98;;;;;;;28.67;36.89;96887.66;4953436;28;20686;-30
2021/09/12 01:16:19;;;;;;;4.43;1.10;;;;;;;28.66;36.88;96883.34;4957584;28;20031;-28
2021/09/12 01:18:44;;;;;;;1.40;0.98;;;;;;;28.66;36.99;96875.44;4963970;28;20799;-29
2021/09/12 01:21:11;;;;;;;1.80;0.95;;;;;;;28.66;36.78;96869.28;4958648;28;20042;-32
2021/09/12 01:23:36;;;;;;;4.13;0.98;;;;;;;28.64;36.87;96866.75;4958809;28;20038;-31
2021/09/12 01:26:02;;;;;;;2.78;0.98;;;;;;;28.65;36.60;96873.72;4964891;28;20030;-28
2021/09/12 01:28:27;;;;;;;3.53;1.52;;;;;;;28.64;36.54;96869.38;4959197;28;21953;-31
2021/09/12 01:30:53;;;;;;;3.53;1.25;;;;;;;28.63;36.87;96874.75;4955179;28;20026;-31
2021/09/12 01:33:18;;;;;;;3.33;1.13;;;;;;;28.63;36.63;96875.63;4958222;28;20030;-29
2021/09/12 01:35:43;;;;;;;1.58;1.10;;;;;;;28.62;36.58;96863.38;4955932;28;20038;-28
2021/09/12 01:38:09;;;;;;;3.40;1.00;;;;;;;28.63;36.63;96867.72;4963337;28;20026;-28
2021/09/12 01:40:34;;;;;;;1.02;0.93;;;;;;;28.63;36.57;96874.75;4961932;28;20658;-29
2021/09/12 01:43:00;;;;;;;2.00;0.90;;;;;;;28.62;36.84;96873.94;4960753;28;20042;-28
2021/09/12 01:45:25;;;;;;;6.05;1.27;;;;;;;28.62;36.79;96879.19;4960013;28;20050;-29
2021/09/12 01:47:50;;;;;;;1.65;0.75;;;;;;;28.62;36.67;96873.94;4967375;28;20034;-32
2021/09/12 01:50:16;;;;;;;3.45;1.20;;;;;;;28.61;36.32;96871.38;4941355;28;20042;-29
2021/09/12 01:52:42;;;;;;;2.10;1.25;;;;;;;28.61;36.59;96869.59;4957201;28;20052;-28
2021/09/12 01:55:08;;;;;;;3.63;0.98;;;;;;;28.61;36.32;96860.84;4964396;28;22163;-29
2021/09/12 01:57:33;;;;;;;2.25;0.90;;;;;;;28.60;36.52;96856.53;4963179;28;20077;-28
2021/09/12 01:59:59;;;;;;;2.83;0.95;;;;;;;28.59;36.51;96866.22;4966517;28;20027;-30
2021/09/12 02:02:24;;;;;;;3.70;1.00;;;;;;;28.59;36.48;96867.97;4965225;28;20034;-28
2021/09/12 02:04:49;;;;;;;1.17;0.98;;;;;;;28.58;36.39;96864.53;4959468;28;20465;-29
2021/09/12 02:07:15;;;;;;;9.20;1.30;;;;;;;28.59;36.51;96868.84;4964673;28;20101;-28
2021/09/12 02:09:40;;;;;;;0.90;0.90;;;;;;;28.58;36.64;96867.16;4961490;28;20031;-28
2021/09/12 02:12:06;;;;;;;3.58;0.85;;;;;;;28.59;36.42;96867.97;4962542;28;20193;-28
2021/09/12 02:14:31;;;;;;;3.17;0.80;;;;;;;28.57;36.46;96870.75;4960921;28;20145;-28
2021/09/12 02:16:57;;;;;;;2.63;0.82;;;;;;;28.57;36.41;96865.47;4958739;28;20370;-29
2021/09/12 02:19:22;;;;;;;1.67;0.90;;;;;;;28.57;36.45;96868.09;4961832;28;20034;-28
2021/09/12 02:21:48;;;;;;;2.22;0.85;;;;;;;28.53;36.50;96862.16;4959391;28;20031;-30
2021/09/12 02:24:13;;;;;;;1.35;1.00;;;;;;;28.55;36.55;96862.06;4943117;28;20023;-29
2021/09/12 02:26:38;;;;;;;0.80;0.70;;;;;;;28.55;36.15;96859.44;4962460;28;20492;-29
2021/09/12 02:29:04;;;;;;;1.63;0.90;;;;;;;28.54;36.25;96855.09;4967616;28;21068;-29
2021/09/12 02:31:29;;;;;;;2.08;1.00;;;;;;;28.55;36.28;96851.53;4963116;28;20042;-28
2021/09/12 02:33:54;;;;;;;1.85;0.75;;;;;;;28.54;36.28;96852.47;4963024;28;20043;-29
2021/09/12 02:36:20;;;;;;;1.50;0.68;;;;;;;28.54;36.20;96855.09;4965262;28;20109;-29
2021/09/12 02:38:45;;;;;;;0.73;0.60;;;;;;;28.52;36.39;96841.16;4969920;28;20034;-31
2021/09/12 02:41:11;;;;;;;1.73;0.98;;;;;;;28.52;36.34;96843.81;4961320;28;20681;-29
2021/09/12 02:43:36;;;;;;;1.63;0.80;;;;;;;28.52;36.17;96846.44;4956737;28;20034;-29
2021/09/12 02:46:02;;;;;;;1.13;0.60;;;;;;;28.50;36.14;96849.19;4964073;28;20034;-31
2021/09/12 02:48:27;;;;;;;1.08;0.80;;;;;;;28.51;36.23;96853.53;4959463;28;20452;-29
2021/09/12 02:50:53;;;;;;;3.50;0.90;;;;;;;28.51;36.34;96844.75;4963243;28;20135;-28
2021/09/12 02:53:18;;;;;;;3.33;0.70;;;;;;;28.50;36.11;96846.56;4966443;28;20046;-28
2021/09/12 02:55:43;;;;;;;1.75;0.75;;;;;;;28.50;36.18;96854.47;4965005;28;20093;-29
2021/09/12 02:58:09;;;;;;;2.65;0.88;;;;;;;28.50;36.19;96851.84;4962195;28;20034;-26
2021/09/12 03:00:34;;;;;;;3.22;0.70;;;;;;;28.49;36.12;96850.13;4960002;28;20026;-31
2021/09/12 03:03:00;;;;;;;0.70;0.63;;;;;;;28.49;36.22;96851.94;4962094;28;20038;-30
2021/09/12 03:05:25;;;;;;;1.52;0.70;;;;;;;28.49;36.07;96859.84;4961443;28;20034;-29
2021/09/12 03:07:51;;;;;;;1.80;0.65;;;;;;;28.49;35.61;96862.47;4966991;28;20630;-28
2021/09/12 03:10:16;;;;;;;2.05;0.70;;;;;;;28.47;36.10;96862.56;4964209;28;20027;-28
2021/09/12 03:12:41;;;;;;;1.75;0.85;;;;;;;28.48;36.34;96856.34;4962789;28;20931;-29
2021/09/12 03:15:07;;;;;;;0.60;0.55;;;;;;;28.47;36.10;96861.72;4952403;28;21848;-26
2021/09/12 03:17:32;;;;;;;2.13;0.73;;;;;;;28.47;36.21;96859.06;4970275;28;20035;-29
2021/09/12 03:19:58;;;;;;;1.27;0.50;;;;;;;28.43;36.27;96854.00;4963381;28;20262;-27
2021/09/12 03:22:23;;;;;;;0.88;0.70;;;;;;;28.45;36.38;96855.69;4957618;28;20765;-29
2021/09/12 03:24:49;;;;;;;0.73;0.60;;;;;;;28.45;36.09;96853.06;4959613;28;21158;-35
2021/09/12 03:27:14;;;;;;;2.47;0.60;;;;;;;28.46;36.00;96852.13;4965644;28;20088;-30
2021/09/12 03:29:40;;;;;;;3.08;0.80;;;;;;;28.45;36.06;96850.44;4961710;28;20030;-27
2021/09/12 03:32:05;;;;;;;1.38;0.60;;;;;;;28.45;35.90;96847.78;4955086;28;20451;-29
2021/09/12 03:34:31;;;;;;;2.90;0.70;;;;;;;28.45;36.07;96850.44;4957857;28;20381;-29
2021/09/12 03:36:56;;;;;;;2.13;0.75;;;;;;;28.43;35.96;96846.09;4960550;28;20031;-29
2021/09/12 03:39:22;;;;;;;1.80;0.70;;;;;;;28.44;36.09;96846.94;4954304;28;20042;-29
2021/09/12 03:41:47;;;;;;;1.17;0.57;;;;;;;28.42;36.01;96839.13;4965595;28;20053;-29
2021/09/12 03:44:12;;;;;;;3.15;0.70;;;;;;;28.43;36.13;96832.06;4962520;28;21214;-29
2021/09/12 03:46:38;;;;;;;4.43;0.90;;;;;;;28.43;35.97;96839.97;4964754;28;20465;-31
2021/09/12 03:49:03;;;;;;;2.25;0.60;;;;;;;28.42;35.95;96840.94;4962142;28;20477;-28
2021/09/12 03:51:29;;;;;;;0.50;0.50;;;;;;;28.41;35.87;96840.06;4958183;28;20121;-28
2021/09/12 03:53:54;;;;;;;0.70;0.68;;;;;;;28.41;35.86;96840.06;4960394;28;20062;-29
2021/09/12 03:56:20;;;;;;;2.95;0.80;;;;;;;28.42;35.83;96848.84;4959388;28;20045;-27
2021/09/12 03:58:45;;;;;;;0.77;0.50;;;;;;;28.41;36.00;96839.22;4964482;28;20105;-32
2021/09/12 04:01:10;;;;;;;1.08;0.60;;;;;;;28.40;35.78;96841.03;4959958;28;20083;-35
2021/09/12 04:03:36;;;;;;;1.13;0.70;;;;;;;28.41;35.66;96842.72;4957526;28;20057;-30
2021/09/12 04:06:01;;;;;;;0.88;0.60;;;;;;;28.40;35.60;96840.16;4959264;28;20517;-30
2021/09/12 04:08:27;;;;;;;1.80;0.80;;;;;;;28.40;35.60;96838.38;4957929;28;20030;-28
2021/09/12 04:10:52;;;;;;;2.85;0.88;;;;;;;28.39;35.59;96841.97;4962264;28;20125;-29
2021/09/12 04:13:17;;;;;;;1.27;0.90;;;;;;;28.38;35.71;96836.78;4960144;28;20034;-32
2021/09/12 04:15:43;;;;;;;1.95;0.57;;;;;;;28.39;35.58;96841.97;4956676;28;20077;-29
2021/09/12 04:18:08;;;;;;;0.55;0.55;;;;;;;28.38;35.66;96837.63;4958836;28;20559;-29
2021/09/12 04:20:34;;;;;;;0.60;0.60;;;;;;;28.38;35.80;96839.44;4960332;28;20034;-32
2021/09/12 04:22:59;;;;;;;3.67;0.70;;;;;;;28.37;35.64;96841.19;4962106;28;20485;-28
2021/09/12 04:25:24;;;;;;;0.50;0.50;;;;;;;28.36;35.62;96842.16;4955829;28;20038;-29
2021/09/12 04:27:50;;;;;;;2.13;0.65;;;;;;;28.36;35.68;96847.44;4959275;28;20026;-30
2021/09/12 04:30:15;;;;;;;0.80;0.60;;;;;;;28.35;35.68;96845.75;4959401;28;20480;-28
2021/09/12 04:32:41;;;;;;;1.60;0.55;;;;;;;28.35;35.69;96839.59;4957271;28;20092;-29
2021/09/12 04:35:07;;;;;;;2.97;0.80;;;;;;;28.36;35.63;96842.16;4958091;28;20031;-29
2021/09/12 04:37:33;;;;;;;0.57;0.57;;;;;;;28.33;35.40;96837.06;4958462;28;20030;-28
2021/09/12 04:39:58;;;;;;;0.82;0.50;;;;;;;28.32;35.63;96838.00;4956992;28;20030;-29
2021/09/12 04:42:24;;;;;;;2.38;0.90;;;;;;;28.34;35.64;96844.03;4960217;28;20440;-28
2021/09/12 04:44:49;;;;;;;0.60;0.60;;;;;;;28.33;35.48;96839.69;4956307;28;20501;-28
2021/09/12 04:47:14;;;;;;;1.05;0.90;;;;;;;28.32;35.43;96845.91;4958922;28;20091;-28
2021/09/12 04:49:40;;;;;;;1.05;0.60;;;;;;;28.31;35.38;96844.25;4955534;28;20030;-30
2021/09/12 04:52:06;;;;;;;0.70;0.70;;;;;;;28.31;35.51;96846.88;4960416;28;20076;-29
2021/09/12 04:54:31;;;;;;;0.60;0.60;;;;;;;28.31;35.55;96849.50;4956985;28;20038;-29
2021/09/12 04:56:57;;;;;;;0.75;0.65;;;;;;;28.31;35.49;96846.88;4960642;28;20034;-30
2021/09/12 04:59:22;;;;;;;0.52;0.50;;;;;;;28.29;35.54;96849.59;4967417;28;20038;-28
2021/09/12 05:01:48;;;;;;;1.45;0.80;;;;;;;28.29;35.45;96852.25;4963392;28;20053;-28
2021/09/12 05:04:13;;;;;;;2.42;0.70;;;;;;;28.31;35.63;96849.50;4964989;28;20544;-30
2021/09/12 05:06:38;;;;;;;5.78;0.70;;;;;;;28.29;35.39;96852.25;4957065;28;20883;-36
2021/09/12 05:09:04;;;;;;;1.10;0.50;;;;;;;28.29;35.44;96856.66;4957920;28;20045;-28
2021/09/12 05:11:29;;;;;;;0.80;0.60;;;;;;;28.29;35.45;96857.50;4957837;28;20681;-27
2021/09/12 05:13:55;;;;;;;0.50;0.50;;;;;;;28.29;35.46;96856.66;4959016;28;20058;-30
2021/09/12 05:16:20;;;;;;;0.65;0.50;;;;;;;28.27;35.56;96858.53;4960039;28;20105;-29
2021/09/12 05:18:45;;;;;;;0.63;0.60;;;;;;;28.27;35.73;96859.38;4959120;28;20446;-29
2021/09/12 05:21:11;;;;;;;1.15;0.70;;;;;;;28.28;35.31;96857.59;4961822;28;20030;-33
2021/09/12 05:23:36;;;;;;;1.98;0.60;;;;;;;28.27;35.32;96863.81;4953284;28;20031;-29
2021/09/12 05:26:02;;;;;;;0.60;0.60;;;;;;;28.27;35.26;96858.53;4968332;28;20035;-30
2021/09/12 05:28:27;;;;;;;2.47;0.82;;;;;;;28.26;35.61;96862.13;4956153;28;20039;-28
2021/09/12 05:30:52;;;;;;;0.50;0.50;;;;;;;28.25;35.65;96863.00;4954822;28;20035;-28
2021/09/12 05:33:18;;;;;;;0.40;0.40;;;;;;;28.26;35.75;96862.13;4957527;28;20533;-28
2021/09/12 05:35:44;;;;;;;2.50;0.55;;;;;;;28.26;35.56;96859.50;4956637;28;20734;-28
2021/09/12 05:38:09;;;;;;;0.80;0.52;;;;;;;28.22;35.79;96850.06;4959373;28;20571;-29
2021/09/12 05:40:35;;;;;;;0.70;0.60;;;;;;;28.25;35.89;96860.38;4936373;28;21748;-28
2021/09/12 05:43:00;;;;;;;2.33;1.00;;;;;;;28.25;36.08;96860.38;4964549;28;20050;-27
2021/09/12 05:45:25;;;;;;;1.90;0.70;;;;;;;28.24;35.95;96853.44;4963963;28;20050;-28
2021/09/12 05:47:51;;;;;;;0.75;0.70;;;;;;;28.25;35.84;96860.38;4955182;28;20031;-29
2021/09/12 05:50:16;;;;;;;1.08;0.60;;;;;;;28.24;36.15;96864.81;4957674;28;20035;-28
2021/09/12 05:52:42;;;;;;;1.50;0.43;;;;;;;28.23;36.03;96854.38;4960617;28;20105;-30
2021/09/12 05:55:08;;;;;;;1.15;0.50;;;;;;;28.23;36.27;96863.13;4958394;28;20058;-30
2021/09/12 05:57:33;;;;;;;2.83;0.80;;;;;;;28.24;36.14;96863.97;4954081;28;20027;-28
2021/09/12 05:59:58;;;;;;;3.30;0.57;;;;;;;28.22;36.09;96865.88;4957270;28;20105;-27
2021/09/12 06:02:24;;;;;;;0.60;0.60;;;;;;;28.24;36.60;96863.97;4959950;28;20026;-29
2021/09/12 06:04:49;;;;;;;0.50;0.50;;;;;;;28.23;36.08;96857.88;4963305;28;20027;-30
2021/09/12 06:07:15;;;;;;;1.90;0.65;;;;;;;28.20;36.23;96854.56;4953888;28;20536;-28
2021/09/12 06:09:40;;;;;;;0.45;0.40;;;;;;;28.23;36.16;96862.28;4956646;28;20038;-27
2021/09/12 06:12:06;;;;;;;0.68;0.60;;;;;;;28.24;36.15;96863.97;4957503;28;20042;-27
2021/09/12 06:14:32;;;;;;;1.65;0.57;;;;;;;28.24;36.15;96864.81;4953769;28;20045;-28
2021/09/12 06:16:57;;;;;;;1.23;0.60;;;;;;;28.25;36.24;96861.28;4953459;28;20711;-28
2021/09/12 06:19:23;;;;;;;1.13;0.60;;;;;;;28.26;35.97;96867.41;4955601;28;20034;-29
2021/09/12 06:21:48;;;;;;;1.58;0.47;;;;;;;28.26;36.02;96867.41;4951804;28;20034;-28
2021/09/12 06:24:13;;;;;;;3.03;0.68;;;;;;;28.27;35.93;96874.34;4957947;28;20932;-28
2021/09/12 06:26:39;;;;;;;6.50;1.25;;;;;;;28.26;36.11;96867.41;4962238;28;20486;-28
2021/09/12 06:29:04;;;;;;;8.85;2.53;;;;;;;28.26;36.20;96873.50;4959086;28;20057;-30
2021/09/12 06:31:30;;;;;;;11.20;2.30;;;;;;;28.27;35.99;96869.09;4957127;28;20027;-29
2021/09/12 06:33:55;;;;;;;4.50;1.88;;;;;;;28.27;35.43;96862.00;4958805;28;20034;-31
2021/09/12 06:36:20;;;;;;;4.90;1.80;;;;;;;28.25;34.99;96860.38;4956428;28;20045;-30
2021/09/12 06:38:46;;;;;;;6.78;1.90;;;;;;;28.22;34.47;96865.88;4958103;28;20026;-33
2021/09/12 06:41:11;;;;;;;3.50;1.33;;;;;;;28.18;34.08;96870.47;4960638;28;20767;-28
2021/09/12 06:43:37;;;;;;;2.80;1.42;;;;;;;28.13;33.81;96857.59;4957334;28;20390;-29
2021/09/12 06:46:02;;;;;;;4.45;1.50;;;;;;;28.10;33.94;96873.56;4959574;28;20058;-29
2021/09/12 06:48:28;;;;;;;2.97;1.00;;;;;;;28.06;33.74;96872.06;4960548;28;20035;-33
2021/09/12 06:50:55;;;;;;;3.67;1.40;;;;;;;28.00;33.95;96868.00;4958058;28;20041;-30
2021/09/12 06:53:21;;;;;;;5.35;1.90;;;;;;;28.01;34.15;96875.00;4958285;28;20030;-29
2021/09/12 06:55:46;;;;;;;4.22;1.60;;;;;;;27.98;34.26;96874.31;4957662;28;20050;-29
2021/09/12 06:58:11;;;;;;;4.95;1.40;;;;;;;27.95;33.97;96874.53;4957024;28;20054;-28
2021/09/12 07:00:37;;;;;;;3.65;1.40;;;;;;;27.92;34.10;96881.66;4955719;28;20508;-28
2021/09/12 07:03:03;;;;;;;4.95;1.90;;;;;;;27.90;34.42;96878.28;4957983;28;20031;-29
2021/09/12 07:05:28;;;;;;;1.92;1.35;;;;;;;27.89;34.16;96886.28;4956612;28;20648;-29
2021/09/12 07:07:53;;;;;;;1.40;1.05;;;;;;;27.85;34.19;96880.34;4956159;28;20100;-31
2021/09/12 07:10:19;;;;;;;1.65;1.20;;;;;;;27.83;34.15;96879.59;4962424;28;20035;-29
2021/09/12 07:12:45;;;;;;;3.42;1.17;;;;;;;27.82;34.32;96880.53;4957262;28;20105;-28
2021/09/12 07:15:11;;;;;;;3.67;1.20;;;;;;;27.80;34.37;96879.75;4973154;28;20046;-30
2021/09/12 07:17:36;;;;;;;2.58;1.35;;;;;;;27.78;34.57;96874.63;4960416;28;20062;-28
2021/09/12 07:20:02;;;;;;;3.70;1.10;;;;;;;27.78;34.54;96879.03;4957124;28;20101;-27
2021/09/12 07:22:27;;;;;;;1.92;1.15;;;;;;;27.76;34.65;96886.16;4961669;28;20019;-32
2021/09/12 07:24:53;;;;;;;3.60;1.10;;;;;;;27.75;34.81;96885.31;4959433;28;20038;-30
2021/09/12 07:27:18;;;;;;;1.63;1.38;;;;;;;27.74;34.83;96888.91;4956695;28;20564;-35
2021/09/12 07:29:44;;;;;;;3.75;1.35;;;;;;;27.74;34.86;96893.31;4958746;28;20030;-30
2021/09/12 07:32:09;;;;;;;3.20;1.10;;;;;;;27.73;34.89;96897.72;4955975;28;20027;-31
2021/09/12 07:34:34;;;;;;;1.35;1.20;;;;;;;27.73;34.80;96889.81;4956743;28;20038;-29
2021/09/12 07:37:00;;;;;;;3.20;1.60;;;;;;;27.73;34.85;96896.88;4954998;28;20026;-28
2021/09/12 07:39:25;;;;;;;2.88;1.40;;;;;;;27.72;34.73;96895.19;4956452;28;20026;-32
2021/09/12 07:41:51;;;;;;;3.63;1.88;;;;;;;27.71;34.77;96898.75;4956302;28;20035;-28
2021/09/12 07:44:16;;;;;;;3.85;1.58;;;;;;;27.71;34.86;96902.22;4951864;28;20030;-29
2021/09/12 07:46:41;;;;;;;2.35;1.27;;;;;;;27.70;34.85;96902.31;4959845;28;20509;-29
2021/09/12 07:49:07;;;;;;;2.10;1.30;;;;;;;27.70;35.00;96897.06;4957502;28;20030;-29
2021/09/12 07:51:32;;;;;;;2.67;1.40;;;;;;;27.70;35.13;96904.94;4954746;28;20034;-28
2021/09/12 07:53:58;;;;;;;3.00;1.65;;;;;;;27.70;34.93;96905.81;4962866;28;20034;-28
2021/09/12 07:56:23;;;;;;;2.38;1.60;;;;;;;27.71;34.98;96910.13;4955091;28;20106;-30
2021/09/12 07:58:49;;;;;;;2.60;1.70;;;;;;;27.71;35.04;96906.63;4959118;28;20046;-28
2021/09/12 08:01:15;;;;;;;5.70;2.03;;;;;;;27.72;35.06;96908.34;4953533;28;20058;-29
2021/09/12 08:03:40;;;;;;;4.80;1.60;;;;;;;27.72;35.49;96911.00;4959813;28;20286;-31
2021/09/12 08:06:05;;;;;;;4.22;1.98;;;;;;;27.72;35.31;96909.19;4959755;28;20026;-28
2021/09/12 08:08:31;;;;;;;1.80;1.40;;;;;;;27.71;35.25;96910.13;4957108;28;20338;-26
2021/09/12 08:10:56;;;;;;;2.53;1.67;;;;;;;27.71;34.90;96909.28;4960397;28;20035;-30
2021/09/12 08:13:22;;;;;;;2.65;1.70;;;;;;;27.69;34.70;96911.16;4958186;28;20041;-29
2021/09/12 08:15:47;;;;;;;2.47;1.63;;;;;;;27.68;34.81;96909.47;4953940;28;20448;-27
2021/09/12 08:18:12;;;;;;;2.90;1.67;;;;;;;27.64;34.64;96912.28;4956426;28;20042;-29
2021/09/12 08:20:38;;;;;;;4.43;1.70;;;;;;;27.65;34.98;96913.97;4956243;28;20034;-29
2021/09/12 08:23:03;;;;;;;2.33;1.65;;;;;;;27.67;34.85;96923.56;4969966;28;20213;-31
2021/09/12 08:25:29;;;;;;;2.88;1.67;;;;;;;27.65;34.87;96916.59;4958355;28;20030;-28
2021/09/12 08:27:54;;;;;;;5.55;1.80;;;;;;;27.67;34.77;96918.28;4952641;28;20458;-32
2021/09/12 08:30:19;;;;;;;3.20;2.10;;;;;;;27.67;34.52;96920.91;4953887;28;20114;-31
2021/09/12 08:32:45;;;;;;;2.03;1.60;;;;;;;27.67;34.76;96919.16;4957282;28;20097;-29
2021/09/12 08:35:10;;;;;;;3.33;1.90;;;;;;;27.64;34.56;96912.28;4960309;28;20026;-31
2021/09/12 08:37:36;;;;;;;3.78;2.20;;;;;;;27.65;34.59;96913.97;4959696;28;20037;-30
2021/09/12 08:40:03;;;;;;;2.70;1.80;;;;;;;27.67;34.83;96923.56;4953336;28;20035;-29
2021/09/12 08:42:28;;;;;;;4.90;2.45;;;;;;;27.67;34.72;96923.56;4955948;28;20058;-29
2021/09/12 08:44:54;;;;;;;3.75;1.88;;;;;;;27.63;34.70;96918.50;4959061;28;20502;-32
2021/09/12 08:47:19;;;;;;;3.47;1.65;;;;;;;27.64;34.96;96920.19;4956900;28;20034;-31
2021/09/12 08:49:45;;;;;;;3.75;2.00;;;;;;;27.64;35.08;96929.84;4953449;28;20045;-28
2021/09/12 08:52:11;;;;;;;5.43;2.10;;;;;;;27.62;35.02;96916.78;4957753;28;20113;-29
2021/09/12 08:54:37;;;;;;;3.88;1.95;;;;;;;27.62;34.91;96922.03;4957194;28;20145;-32
2021/09/12 08:57:02;;;;;;;3.63;2.03;;;;;;;27.59;34.61;96922.22;4954665;28;20053;-30
2021/09/12 08:59:33;;;;;;;5.07;1.80;;;;;;;27.56;34.46;96909.22;4956535;28;20057;-28
2021/09/12 09:02:00;;;;;;;2.50;1.77;;;;;;;27.55;34.67;96910.16;4956050;28;20626;-30
2021/09/12 09:04:30;;;;;;;4.35;1.77;;;;;;;27.57;34.48;96907.44;4952515;28;20023;-30
2021/09/12 09:06:59;;;;;;;5.05;1.98;;;;;;;27.59;34.60;96914.31;4958919;28;20096;-29
2021/09/12 09:09:40;;;;;;;6.50;1.90;;;;;;;27.61;34.38;96919.53;4961805;28;20030;-30
2021/09/12 09:12:24;;;;;;;4.95;1.60;;;;;;;27.63;34.52;96917.63;4960711;28;20038;-29
2021/09/12 09:15:12;;;;;;;3.53;1.35;;;;;;;27.65;34.65;96906.06;4957526;28;20109;-35
2021/09/12 09:17:43;;;;;;;2.88;1.60;;;;;;;27.69;34.58;96911.16;4960572;28;20549;-33
2021/09/12 09:20:10;;;;;;;2.67;1.50;;;;;;;27.71;34.50;96909.28;4958715;28;20030;-30
2021/09/12 09:22:40;;;;;;;4.55;1.40;;;;;;;27.73;34.63;96907.41;4956166;28;20027;-32
2021/09/12 09:25:09;;;;;;;4.40;1.70;;;;;;;27.74;34.50;96909.09;4958163;28;20733;-30
2021/09/12 09:28:02;;;;;;;6.20;1.90;;;;;;;27.77;34.76;96908.94;4959732;28;20066;-28
2021/09/12 09:30:29;;;;;;;4.78;1.65;;;;;;;27.82;34.93;96903.38;4956418;28;20043;-29
2021/09/12 09:33:14;;;;;;;4.60;1.98;;;;;;;27.82;35.18;96906.88;4961800;28;20085;-30
2021/09/12 09:36:18;;;;;;;5.90;2.40;;;;;;;27.85;35.36;96903.19;4941164;28;20158;-28
2021/09/12 09:38:46;;;;;;;8.55;2.80;;;;;;;27.88;35.45;96895.94;4924832;28;20121;-33
2021/09/12 09:41:17;;;;;;;9.32;2.80;;;;;;;27.90;35.33;96899.34;4955369;28;20030;-31
2021/09/12 09:43:43;;;;;;;11.25;3.10;;;;;;;27.92;35.43;96888.72;4956330;28;20121;-28
2021/09/12 09:46:43;;;;;;;9.90;3.13;;;;;;;27.94;35.54;96900.00;4957332;28;20080;-28
2021/09/12 09:49:28;;;;;;;10.20;3.10;;;;;;;27.96;35.59;96892.84;4955524;28;20035;-28
2021/09/12 09:51:58;;;;;;;8.60;3.25;;;;;;;28.00;35.57;96896.16;4953677;28;20034;-28
2021/09/12 09:54:30;;;;;;;10.25;3.50;;;;;;;28.01;35.67;96889.94;4955397;28;20141;-27
2021/09/12 09:56:56;;;;;;;5.97;2.75;;;;;;;28.03;35.43;96898.59;4958579;28;20038;-29
2021/09/12 09:59:22;;;;;;;9.15;3.28;;;;;;;28.04;35.33;96895.03;4952628;28;20077;-29
2021/09/12 10:01:52;;;;;;;6.88;3.28;;;;;;;28.04;35.40;96895.03;4957770;28;20027;-30
2021/09/12 10:04:21;;;;;;;9.85;3.47;;;;;;;28.07;35.50;96901.91;4961505;28;20030;-29
2021/09/12 10:06:47;;;;;;;9.60;3.67;;;;;;;28.08;35.54;96904.44;4956935;28;20026;-29
2021/09/12 10:09:13;;;;;;;9.57;3.10;;;;;;;28.10;35.82;96897.28;4943476;28;20045;-29
2021/09/12 10:11:56;;;;;;;8.70;3.17;;;;;;;28.11;35.67;96906.88;4972951;28;20401;-28
2021/09/12 10:14:35;;;;;;;12.20;3.28;;;;;;;28.12;35.76;96892.78;4953128;28;20883;-28
2021/09/12 10:17:01;;;;;;;6.75;2.70;;;;;;;28.12;35.12;96887.50;4957750;28;20041;-34
2021/09/12 10:19:45;;;;;;;4.82;2.25;;;;;;;28.14;34.71;96890.88;4939587;28;20058;-27
2021/09/12 10:22:15;;;;;;;6.18;2.45;;;;;;;28.16;34.77;96888.16;4958797;28;20158;-32
2021/09/12 10:25:05;;;;;;;6.18;2.53;;;;;;;28.15;34.75;96884.66;4959476;28;20460;-29
2021/09/12 10:27:44;;;;;;;4.13;2.00;;;;;;;28.16;34.24;96877.63;4956015;28;20105;-27
2021/09/12 10:30:37;;;;;;;5.35;2.10;;;;;;;28.16;34.33;96878.47;4954835;28;20026;-29
2021/09/12 10:33:11;;;;;;;5.03;2.10;;;;;;;28.17;34.49;96877.53;4974785;28;20074;-29
2021/09/12 10:35:37;;;;;;;3.92;1.90;;;;;;;28.19;34.61;96874.81;4979043;28;20550;-28
2021/09/12 10:38:12;;;;;;;4.57;1.92;;;;;;;28.18;34.54;96868.69;4970142;28;20160;-29
2021/09/12 10:40:47;;;;;;;5.60;2.58;;;;;;;28.20;34.94;96865.97;4982944;28;20172;-29
2021/09/12 10:43:38;;;;;;;5.45;2.20;;;;;;;28.21;34.79;96872.06;4977581;28;20030;-29
2021/09/12 10:46:04;;;;;;;2.95;2.00;;;;;;;28.22;34.62;96871.13;4968877;28;20096;-29
2021/09/12 10:48:30;;;;;;;4.25;1.92;;;;;;;28.22;34.66;96866.69;4978617;28;20437;-28
2021/09/12 10:50:56;;;;;;;5.90;2.30;;;;;;;28.24;34.53;96869.25;4981136;28;20034;-27
2021/09/12 10:53:47;;;;;;;4.30;2.08;;;;;;;28.25;34.57;96865.66;4978857;28;20417;-28
2021/09/12 10:56:15;;;;;;;8.15;2.35;;;;;;;28.27;34.53;96863.81;4978109;28;20085;-31
2021/09/12 10:58:40;;;;;;;3.85;2.08;;;;;;;28.27;34.74;96869.09;4976035;28;20061;-31
2021/09/12 11:01:06;;;;;;;5.07;2.20;;;;;;;28.27;34.61;96869.09;4976997;28;20022;-27
2021/09/12 11:03:33;;;;;;;5.50;1.90;;;;;;;28.28;34.81;96863.72;4960052;28;20675;-28
2021/09/12 11:05:58;;;;;;;3.92;2.08;;;;;;;28.29;34.65;96861.91;4992995;28;20031;-28
2021/09/12 11:08:37;;;;;;;6.50;1.60;;;;;;;28.30;34.86;96858.38;4975552;28;20416;-29
2021/09/12 11:11:04;;;;;;;4.63;1.90;;;;;;;28.30;35.07;96853.91;4975556;28;20794;-32
2021/09/12 11:13:29;;;;;;;3.17;1.90;;;;;;;28.31;35.32;96860.06;4975469;28;20112;-30
2021/09/12 11:16:17;;;;;;;5.28;1.80;;;;;;;28.33;35.06;96855.50;4977682;28;20038;-29
2021/09/12 11:18:49;;;;;;;4.50;1.90;;;;;;;28.33;34.86;96847.59;4977788;28;20046;-29
2021/09/12 11:21:31;;;;;;;4.13;1.83;;;;;;;28.33;34.62;96850.25;4979677;28;20046;-29
2021/09/12 11:24:08;;;;;;;3.05;1.60;;;;;;;28.35;34.92;96845.75;4976975;28;20030;-28
2021/09/12 11:26:38;;;;;;;4.03;1.60;;;;;;;28.37;34.89;96848.28;4978818;28;20113;-29
2021/09/12 11:29:06;;;;;;;8.68;2.13;;;;;;;28.37;35.16;96849.13;4990538;28;20517;-28
2021/09/12 11:31:33;;;;;;;2.33;1.63;;;;;;;28.38;35.15;96842.06;4977328;28;20026;-27
2021/09/12 11:33:58;;;;;;;3.70;1.67;;;;;;;28.38;34.92;96840.25;4977253;28;20037;-35